Weather Forecast for Al Ain Airport  
Thursday, February 22, 2018 (02:35 UTC)
Al Ain International Airport
ICAO Code: OMAL
IATA Code: AAN
  • METAR OMAL 220200Z 09005KT CAVOK 18/10 Q1011 NOSIG=
  • TAF OMAL 212300Z 2200/2306 03006KT 8000 NSC BECMG 2208/2210 30012KT BECMG 2217/2219 05005KT BECMG 2302/2304 13005KT=
AL AIN (OMAL) 5 DAY OUTLOOK:
Thursday, 22/Feb/2018
HIGH:
31°C
LOW:
17°C
MIN. VISIBILITY:
7000 meters
WIND (DIRECTION/SPEED):
ENE at 3 - 5 knots (6 - 9 km/h) becoming NW at 7 - 10 knots (13 - 19 km/h)
WEATHER:
Partly Cloudy
RAINFALL:
Nil
Friday, 23/Feb/2018
HIGH:
31°C
LOW:
20°C
MIN. VISIBILITY:
7000 meters
WIND (DIRECTION/SPEED):
SSE at 7 - 10 knots (13 - 19 km/h) becoming NNW at 7 - 10 knots (13 - 19 km/h)
WEATHER:
Partly cloudy with a chance for isolated light showers.
RAINFALL:
10% chance.
Saturday, 24/Feb/2018
HIGH:
31°C
LOW:
22°C
MIN. VISIBILITY:
4000 meters
WIND (DIRECTION/SPEED):
S at 10 - 15 knots (19 - 28 km/h) becoming SE at 5 - 7 knots (9 - 13 km/h)
WEATHER:
Partly cloudy with a chance for isolated light showers.
RAINFALL:
10% chance.
Sunday, 25/Feb/2018
HIGH:
24°C
LOW:
20°C
MIN. VISIBILITY:
3000 meters
WIND (DIRECTION/SPEED):
SE at 10 - 15 knots (19 - 28 km/h) becoming SE at 3 - 5 knots (6 - 9 km/h)
WEATHER:
A chance exists for thundershowers otherwise partly cloudy.
RAINFALL:
20% chance.
Monday, 26/Feb/2018
HIGH:
30°C
LOW:
20°C
MIN. VISIBILITY:
8000 meters
WIND (DIRECTION/SPEED):
SE at 10 - 15 knots (19 - 28 km/h)
WEATHER:
Partly Cloudy
RAINFALL:
Nil